KG-0007 weather

Tokmok Airport
Tokmok, Chuy Region, Kyrgyzstan

Public forecast

Using degrees Celsius for public forecast. Weather courtesy of forecast.io.

Closest aviation weather report (METAR) to Tokmok Airport

Closest report is Manas International Airport, 40.2 nm (74.5 km) WNW. Retrieved 2020/02/21 02:30 UTC (21 minutes ago):

UCFM 210230Z 00000MPS 1300 1200E R08/1500N BR FU NSC M04/M05 Q1013 R08/1///95 NOSIG

Closest aviation forecast (TAF) to Tokmok Airport

Closest forecast is Manas International Airport, 40.2 nm (74.5 km) WNW. Retrieved 2020-02-21 00:00 UTC (3 hours ago):

TAF UCFM 202246Z 2100/2124 29003G08MPS 3000 BR SCT050 TEMPO 2100/2104 0800 FZFG FU FM210400 32003G08MPS 6000 BKN100